sensor_id;sensor_type;location;lat;lon;timestamp;P1;durP1;ratioP1;P2;durP2;ratioP2
5791;SDS011;2922;53.482;10.006;2024-01-25T15:52:10;12.63;;;2.60;;
5791;SDS011;2922;53.482;10.006;2024-01-25T15:54:37;16.80;;;3.63;;
5791;SDS011;2922;53.482;10.006;2024-01-25T15:57:03;13.57;;;2.27;;
5791;SDS011;2922;53.482;10.006;2024-01-25T15:59:33;15.83;;;3.33;;
5791;SDS011;2922;53.482;10.006;2024-01-25T16:01:59;19.10;;;3.57;;
5791;SDS011;2922;53.482;10.006;2024-01-25T16:04:26;13.97;;;2.53;;
5791;SDS011;2922;53.482;10.006;2024-01-25T16:06:52;14.33;;;2.50;;
5791;SDS011;2922;53.482;10.006;2024-01-25T16:09:18;14.30;;;2.67;;
5791;SDS011;2922;53.482;10.006;2024-01-25T16:11:44;15.07;;;2.60;;
5791;SDS011;2922;53.482;10.006;2024-01-25T16:14:09;24.63;;;3.80;;
5791;SDS011;2922;53.482;10.006;2024-01-25T16:16:35;13.57;;;3.53;;
5791;SDS011;2922;53.482;10.006;2024-01-25T16:19:00;13.67;;;4.10;;
5791;SDS011;2922;53.482;10.006;2024-01-25T16:21:26;15.67;;;2.73;;
5791;SDS011;2922;53.482;10.006;2024-01-25T16:23:52;12.20;;;2.30;;
5791;SDS011;2922;53.482;10.006;2024-01-25T16:26:17;12.20;;;2.73;;
5791;SDS011;2922;53.482;10.006;2024-01-25T16:28:43;13.63;;;2.60;;
5791;SDS011;2922;53.482;10.006;2024-01-25T16:31:09;14.07;;;3.27;;
5791;SDS011;2922;53.482;10.006;2024-01-25T16:33:36;17.27;;;4.70;;
5791;SDS011;2922;53.482;10.006;2024-01-25T16:36:01;14.77;;;2.70;;
5791;SDS011;2922;53.482;10.006;2024-01-25T16:38:27;16.97;;;2.93;;
5791;SDS011;2922;53.482;10.006;2024-01-25T16:40:53;15.20;;;2.93;;
5791;SDS011;2922;53.482;10.006;2024-01-25T16:43:19;15.63;;;2.90;;
5791;SDS011;2922;53.482;10.006;2024-01-25T16:45:44;18.43;;;2.97;;
5791;SDS011;2922;53.482;10.006;2024-01-25T16:48:10;17.70;;;2.90;;
5791;SDS011;2922;53.482;10.006;2024-01-25T16:50:35;21.57;;;3.37;;
5791;SDS011;2922;53.482;10.006;2024-01-25T16:53:01;21.00;;;3.00;;
5791;SDS011;2922;53.482;10.006;2024-01-25T16:55:27;15.30;;;2.87;;
5791;SDS011;2922;53.482;10.006;2024-01-25T16:57:53;21.17;;;2.93;;
5791;SDS011;2922;53.482;10.006;2024-01-25T17:00:19;19.33;;;2.90;;
5791;SDS011;2922;53.482;10.006;2024-01-25T17:02:46;12.93;;;2.73;;
5791;SDS011;2922;53.482;10.006;2024-01-25T17:05:13;18.33;;;4.20;;
5791;SDS011;2922;53.482;10.006;2024-01-25T17:07:39;36.10;;;4.63;;
5791;SDS011;2922;53.482;10.006;2024-01-25T17:10:05;35.23;;;3.97;;
5791;SDS011;2922;53.482;10.006;2024-01-25T17:12:32;19.17;;;3.80;;
5791;SDS011;2922;53.482;10.006;2024-01-25T17:14:57;17.90;;;2.27;;
5791;SDS011;2922;53.482;10.006;2024-01-25T17:17:23;19.50;;;3.53;;
5791;SDS011;2922;53.482;10.006;2024-01-25T17:19:51;19.77;;;2.90;;
5791;SDS011;2922;53.482;10.006;2024-01-25T17:22:17;20.23;;;3.83;;
5791;SDS011;2922;53.482;10.006;2024-01-25T17:24:43;19.33;;;4.20;;
5791;SDS011;2922;53.482;10.006;2024-01-25T17:27:08;19.40;;;3.10;;
5791;SDS011;2922;53.482;10.006;2024-01-25T17:29:34;21.47;;;3.07;;
5791;SDS011;2922;53.482;10.006;2024-01-25T17:31:59;22.13;;;2.97;;
5791;SDS011;2922;53.482;10.006;2024-01-25T17:34:25;28.90;;;4.20;;
5791;SDS011;2922;53.482;10.006;2024-01-25T17:36:50;18.87;;;3.47;;
5791;SDS011;2922;53.482;10.006;2024-01-25T17:39:16;23.73;;;3.77;;
5791;SDS011;2922;53.482;10.006;2024-01-25T17:41:42;17.83;;;2.57;;
5791;SDS011;2922;53.482;10.006;2024-01-25T17:44:07;18.10;;;2.93;;
5791;SDS011;2922;53.482;10.006;2024-01-25T17:46:33;15.83;;;3.20;;
5791;SDS011;2922;53.482;10.006;2024-01-25T17:48:59;52.50;;;7.53;;
5791;SDS011;2922;53.482;10.006;2024-01-25T17:51:24;35.77;;;4.10;;
5791;SDS011;2922;53.482;10.006;2024-01-25T17:53:50;29.87;;;5.17;;
5791;SDS011;2922;53.482;10.006;2024-01-25T17:56:16;17.40;;;3.60;;
5791;SDS011;2922;53.482;10.006;2024-01-25T17:58:41;25.03;;;3.83;;
5791;SDS011;2922;53.482;10.006;2024-01-25T18:01:07;30.27;;;3.53;;
5791;SDS011;2922;53.482;10.006;2024-01-25T19:03:39;17.43;;;4.40;;
5791;SDS011;2922;53.482;10.006;2024-01-25T19:06:05;22.33;;;3.93;;
5791;SDS011;2922;53.482;10.006;2024-01-25T19:08:31;24.80;;;4.40;;
5791;SDS011;2922;53.482;10.006;2024-01-25T19:10:57;30.17;;;4.33;;
5791;SDS011;2922;53.482;10.006;2024-01-25T19:13:23;34.40;;;4.53;;
5791;SDS011;2922;53.482;10.006;2024-01-25T19:15:49;21.60;;;4.40;;
5791;SDS011;2922;53.482;10.006;2024-01-25T19:18:15;25.73;;;5.83;;
5791;SDS011;2922;53.482;10.006;2024-01-25T19:20:41;61.43;;;16.50;;
5791;SDS011;2922;53.482;10.006;2024-01-25T19:23:09;51.07;;;16.90;;
5791;SDS011;2922;53.482;10.006;2024-01-25T19:25:35;71.23;;;21.90;;
5791;SDS011;2922;53.482;10.006;2024-01-25T19:28:01;42.23;;;12.93;;
5791;SDS011;2922;53.482;10.006;2024-01-25T19:30:26;52.90;;;17.93;;
5791;SDS011;2922;53.482;10.006;2024-01-25T19:32:52;54.60;;;17.60;;
5791;SDS011;2922;53.482;10.006;2024-01-25T19:35:17;34.63;;;9.67;;
5791;SDS011;2922;53.482;10.006;2024-01-25T19:37:44;33.73;;;8.73;;
5791;SDS011;2922;53.482;10.006;2024-01-25T19:40:10;28.33;;;7.43;;
5791;SDS011;2922;53.482;10.006;2024-01-25T19:42:35;25.43;;;7.90;;
5791;SDS011;2922;53.482;10.006;2024-01-25T19:45:01;44.20;;;8.40;;
5791;SDS011;2922;53.482;10.006;2024-01-25T19:47:27;30.80;;;7.30;;
5791;SDS011;2922;53.482;10.006;2024-01-25T19:49:53;29.67;;;8.10;;
5791;SDS011;2922;53.482;10.006;2024-01-25T19:52:20;37.23;;;7.33;;
5791;SDS011;2922;53.482;10.006;2024-01-25T19:54:46;31.80;;;6.40;;
5791;SDS011;2922;53.482;10.006;2024-01-25T19:57:12;24.93;;;5.87;;
5791;SDS011;2922;53.482;10.006;2024-01-25T19:59:39;32.87;;;6.80;;
5791;SDS011;2922;53.482;10.006;2024-01-25T20:02:06;33.47;;;6.87;;
5791;SDS011;2922;53.482;10.006;2024-01-25T20:04:32;25.80;;;8.30;;
5791;SDS011;2922;53.482;10.006;2024-01-25T20:06:59;22.73;;;5.63;;
5791;SDS011;2922;53.482;10.006;2024-01-25T20:09:24;26.97;;;6.70;;
5791;SDS011;2922;53.482;10.006;2024-01-25T20:11:50;28.10;;;6.00;;
5791;SDS011;2922;53.482;10.006;2024-01-25T20:14:17;20.17;;;6.10;;
5791;SDS011;2922;53.482;10.006;2024-01-25T20:16:42;20.13;;;6.60;;
5791;SDS011;2922;53.482;10.006;2024-01-25T20:19:08;22.90;;;5.40;;
5791;SDS011;2922;53.482;10.006;2024-01-25T20:21:34;35.13;;;8.20;;
5791;SDS011;2922;53.482;10.006;2024-01-25T20:23:59;36.57;;;8.37;;
5791;SDS011;2922;53.482;10.006;2024-01-25T20:26:26;33.67;;;6.83;;
5791;SDS011;2922;53.482;10.006;2024-01-25T20:28:52;31.30;;;6.23;;
5791;SDS011;2922;53.482;10.006;2024-01-25T20:31:19;25.90;;;8.70;;
5791;SDS011;2922;53.482;10.006;2024-01-25T20:33:45;28.00;;;6.97;;
5791;SDS011;2922;53.482;10.006;2024-01-25T20:36:11;20.93;;;6.60;;
5791;SDS011;2922;53.482;10.006;2024-01-25T20:38:37;24.97;;;6.20;;
5791;SDS011;2922;53.482;10.006;2024-01-25T20:41:02;16.90;;;4.93;;
5791;SDS011;2922;53.482;10.006;2024-01-25T20:43:28;22.70;;;7.57;;
5791;SDS011;2922;53.482;10.006;2024-01-25T20:45:54;27.20;;;6.30;;
5791;SDS011;2922;53.482;10.006;2024-01-25T20:48:21;29.70;;;9.40;;
5791;SDS011;2922;53.482;10.006;2024-01-25T20:50:47;44.80;;;11.30;;
5791;SDS011;2922;53.482;10.006;2024-01-25T20:53:12;41.13;;;10.17;;
5791;SDS011;2922;53.482;10.006;2024-01-25T20:55:38;34.03;;;8.33;;
5791;SDS011;2922;53.482;10.006;2024-01-25T20:58:04;31.17;;;7.53;;
5791;SDS011;2922;53.482;10.006;2024-01-25T21:00:29;25.33;;;6.90;;
5791;SDS011;2922;53.482;10.006;2024-01-25T21:02:57;21.77;;;7.67;;
5791;SDS011;2922;53.482;10.006;2024-01-25T21:05:22;34.90;;;7.17;;
5791;SDS011;2922;53.482;10.006;2024-01-25T21:07:49;25.83;;;8.10;;
5791;SDS011;2922;53.482;10.006;2024-01-25T21:10:15;28.47;;;7.37;;
5791;SDS011;2922;53.482;10.006;2024-01-25T21:12:43;22.93;;;6.10;;
5791;SDS011;2922;53.482;10.006;2024-01-25T21:15:09;24.17;;;6.33;;
5791;SDS011;2922;53.482;10.006;2024-01-25T21:17:36;29.70;;;7.00;;
5791;SDS011;2922;53.482;10.006;2024-01-25T21:20:02;33.60;;;6.57;;
5791;SDS011;2922;53.482;10.006;2024-01-25T21:22:30;24.47;;;6.50;;
5791;SDS011;2922;53.482;10.006;2024-01-25T21:24:55;30.90;;;8.10;;
5791;SDS011;2922;53.482;10.006;2024-01-25T21:27:21;21.40;;;6.50;;
5791;SDS011;2922;53.482;10.006;2024-01-25T21:29:47;32.00;;;6.87;;
5791;SDS011;2922;53.482;10.006;2024-01-25T21:32:12;23.30;;;5.27;;
5791;SDS011;2922;53.482;10.006;2024-01-25T21:34:38;22.27;;;6.70;;
5791;SDS011;2922;53.482;10.006;2024-01-25T21:37:04;19.93;;;6.10;;
5791;SDS011;2922;53.482;10.006;2024-01-25T21:39:29;33.53;;;6.10;;
5791;SDS011;2922;53.482;10.006;2024-01-25T21:41:55;18.07;;;5.00;;
5791;SDS011;2922;53.482;10.006;2024-01-25T21:44:20;19.47;;;6.43;;
5791;SDS011;2922;53.482;10.006;2024-01-25T21:46:46;20.87;;;7.73;;
5791;SDS011;2922;53.482;10.006;2024-01-25T21:49:11;22.60;;;6.77;;
5791;SDS011;2922;53.482;10.006;2024-01-25T21:51:41;27.63;;;6.57;;
5791;SDS011;2922;53.482;10.006;2024-01-25T21:54:08;29.83;;;5.87;;
5791;SDS011;2922;53.482;10.006;2024-01-25T21:56:34;36.57;;;7.20;;
5791;SDS011;2922;53.482;10.006;2024-01-25T21:58:59;23.83;;;6.53;;
5791;SDS011;2922;53.482;10.006;2024-01-25T22:01:25;35.30;;;7.23;;
5791;SDS011;2922;53.482;10.006;2024-01-25T22:03:51;27.00;;;6.00;;
5791;SDS011;2922;53.482;10.006;2024-01-25T22:06:18;30.47;;;7.17;;
5791;SDS011;2922;53.482;10.006;2024-01-25T22:08:44;30.40;;;6.40;;
5791;SDS011;2922;53.482;10.006;2024-01-25T22:11:10;27.90;;;7.47;;
5791;SDS011;2922;53.482;10.006;2024-01-25T22:13:35;26.97;;;6.90;;
5791;SDS011;2922;53.482;10.006;2024-01-25T22:16:03;23.97;;;6.73;;
5791;SDS011;2922;53.482;10.006;2024-01-25T22:18:29;31.53;;;6.53;;
5791;SDS011;2922;53.482;10.006;2024-01-25T22:20:54;30.30;;;8.20;;
5791;SDS011;2922;53.482;10.006;2024-01-25T22:23:20;25.33;;;6.30;;
5791;SDS011;2922;53.482;10.006;2024-01-25T22:25:45;19.80;;;6.80;;
5791;SDS011;2922;53.482;10.006;2024-01-25T22:28:11;32.20;;;7.00;;
5791;SDS011;2922;53.482;10.006;2024-01-25T22:30:37;20.33;;;6.63;;
5791;SDS011;2922;53.482;10.006;2024-01-25T22:33:04;32.07;;;5.90;;
5791;SDS011;2922;53.482;10.006;2024-01-25T22:35:29;25.87;;;5.30;;
5791;SDS011;2922;53.482;10.006;2024-01-25T22:37:55;21.90;;;5.47;;
5791;SDS011;2922;53.482;10.006;2024-01-25T22:40:21;18.37;;;5.47;;
5791;SDS011;2922;53.482;10.006;2024-01-25T22:42:46;33.13;;;6.10;;
5791;SDS011;2922;53.482;10.006;2024-01-25T22:45:12;35.17;;;7.40;;
5791;SDS011;2922;53.482;10.006;2024-01-25T22:47:38;23.40;;;6.30;;
5791;SDS011;2922;53.482;10.006;2024-01-25T22:50:03;17.50;;;5.50;;
5791;SDS011;2922;53.482;10.006;2024-01-25T22:52:29;29.20;;;6.17;;
5791;SDS011;2922;53.482;10.006;2024-01-25T22:54:55;35.03;;;7.47;;
5791;SDS011;2922;53.482;10.006;2024-01-25T22:57:20;37.60;;;8.53;;
5791;SDS011;2922;53.482;10.006;2024-01-25T22:59:46;29.20;;;6.03;;
5791;SDS011;2922;53.482;10.006;2024-01-25T23:02:14;25.43;;;5.63;;
5791;SDS011;2922;53.482;10.006;2024-01-25T23:04:39;32.27;;;6.20;;
5791;SDS011;2922;53.482;10.006;2024-01-25T23:07:05;30.20;;;6.10;;
5791;SDS011;2922;53.482;10.006;2024-01-25T23:09:30;25.43;;;6.00;;
5791;SDS011;2922;53.482;10.006;2024-01-25T23:11:56;32.00;;;6.27;;
5791;SDS011;2922;53.482;10.006;2024-01-25T23:14:21;25.43;;;5.90;;
5791;SDS011;2922;53.482;10.006;2024-01-25T23:16:47;22.10;;;6.17;;
5791;SDS011;2922;53.482;10.006;2024-01-25T23:19:12;24.33;;;5.80;;
5791;SDS011;2922;53.482;10.006;2024-01-25T23:21:38;28.63;;;5.67;;
5791;SDS011;2922;53.482;10.006;2024-01-25T23:24:04;33.20;;;5.50;;
5791;SDS011;2922;53.482;10.006;2024-01-25T23:26:30;20.27;;;5.53;;
5791;SDS011;2922;53.482;10.006;2024-01-25T23:28:56;27.33;;;6.23;;
5791;SDS011;2922;53.482;10.006;2024-01-25T23:31:22;25.57;;;5.33;;
5791;SDS011;2922;53.482;10.006;2024-01-25T23:33:47;43.63;;;7.60;;
5791;SDS011;2922;53.482;10.006;2024-01-25T23:36:13;29.77;;;6.33;;
5791;SDS011;2922;53.482;10.006;2024-01-25T23:38:38;24.73;;;5.50;;
5791;SDS011;2922;53.482;10.006;2024-01-25T23:41:06;23.00;;;5.73;;
5791;SDS011;2922;53.482;10.006;2024-01-25T23:43:32;31.03;;;6.07;;
5791;SDS011;2922;53.482;10.006;2024-01-25T23:45:57;27.00;;;6.27;;
5791;SDS011;2922;53.482;10.006;2024-01-25T23:48:23;35.77;;;7.43;;
5791;SDS011;2922;53.482;10.006;2024-01-25T23:50:48;32.33;;;7.50;;
5791;SDS011;2922;53.482;10.006;2024-01-25T23:53:14;21.13;;;6.27;;
5791;SDS011;2922;53.482;10.006;2024-01-25T23:55:39;30.03;;;5.70;;
5791;SDS011;2922;53.482;10.006;2024-01-25T23:58:05;27.07;;;5.93;;
